NCAR-RAP Real-Time Weather Data

Output produced by METARs form (09 October 2015  06:42 UTC)
found at
Conditions at: K4O4 observed 09 October 2015  06:35 UTC
Temperature: 19.0°C (66°F)
Dewpoint: 15.0°C (59°F) [RH = 78%]
Pressure (altimeter): 30.06 inches Hg (1018.0 mb)
Winds: calm
Visibility: 10 or more miles (16+ km)
Ceiling: at least 12,000 feet AGL
Clouds: sky clear below 12,000 feet AGL
Present Weather: automated observation with no human augmentation;
there may or may not be significant weather present at this time
K4O4 090635Z AUTO 00000KT 10SM CLR 19/15 A3006 RMK AO2